Time;durP1;ratioP1;P1;durP2;ratioP2;P2;SDS_P1;SDS_P2;PMS_P1;PMS_P2;Temp;Humidity;BMP_temperature;BMP_pressure;BME280_temperature;BME280_humidity;BME280_pressure;Samples;Min_cycle;Max_cycle;Signal;HPM_P1;HPM_P2
2023/07/05 00:01:42;;;;;;;11.57;4.30;;;14.50;99.90;;;;;;5031496;28;20057;-76
2023/07/05 00:04:08;;;;;;;8.73;4.97;;;14.50;99.90;;;;;;5032241;28;20048;-76
2023/07/05 00:06:34;;;;;;;13.50;5.33;;;14.50;99.90;;;;;;5031492;28;20053;-76
2023/07/05 00:09:00;;;;;;;10.80;5.00;;;14.50;99.90;;;;;;5031491;28;20630;-76
2023/07/05 00:11:25;;;;;;;11.80;5.60;;;14.50;99.90;;;;;;5014845;28;20114;-77
2023/07/05 00:13:51;;;;;;;14.60;5.77;;;14.50;99.90;;;;;;5031586;28;20088;-75
2023/07/05 00:16:17;;;;;;;11.90;5.20;;;14.50;99.90;;;;;;5032389;28;20053;-76
2023/07/05 00:18:42;;;;;;;14.50;5.33;;;14.50;99.90;;;;;;5031666;28;20049;-76
2023/07/05 00:21:10;;;;;;;10.77;5.70;;;14.50;99.90;;;;;;5031795;28;20061;-76
2023/07/05 00:23:37;;;;;;;10.20;5.00;;;14.50;99.90;;;;;;5032780;28;20468;-75
2023/07/05 00:26:04;;;;;;;11.80;5.47;;;14.50;99.90;;;;;;5031488;28;20342;-75
2023/07/05 00:28:33;;;;;;;15.07;6.10;;;14.50;99.90;;;;;;5030672;28;20760;-76
2023/07/05 00:31:00;;;;;;;10.83;5.67;;;14.50;99.90;;;;;;5031482;28;20292;-76
2023/07/05 00:33:25;;;;;;;9.73;5.33;;;14.40;99.90;;;;;;5032025;28;20288;-76
2023/07/05 00:35:53;;;;;;;11.23;5.43;;;14.50;99.90;;;;;;5032487;28;20284;-76
2023/07/05 00:38:20;;;;;;;12.67;5.70;;;14.50;99.90;;;;;;5031123;28;20049;-76
2023/07/05 00:40:46;;;;;;;17.40;6.03;;;14.40;99.90;;;;;;5032464;28;20280;-76
2023/07/05 00:43:13;;;;;;;12.87;5.20;;;14.40;99.90;;;;;;5032153;28;20291;-76
2023/07/05 00:45:54;;;;;;;14.77;5.67;;;14.40;99.90;;;;;;5035240;28;20788;-76
2023/07/05 00:48:53;;;;;;;11.60;5.50;;;14.40;99.90;;;;;;5035961;28;20268;-76
2023/07/05 00:51:30;;;;;;;12.70;5.87;;;14.50;99.90;;;;;;5027954;28;20384;-76
2023/07/05 00:54:00;;;;;;;11.53;5.40;;;14.50;99.90;;;;;;5035133;28;20284;-76
2023/07/05 00:56:37;;;;;;;12.03;5.50;;;14.50;99.90;;;;;;5035546;28;20280;-76
2023/07/05 00:59:07;;;;;;;13.40;5.37;;;14.50;99.90;;;;;;5036279;28;20689;-76
2023/07/05 01:01:33;;;;;;;15.60;6.73;;;14.50;99.90;;;;;;5035868;28;20276;-76
2023/07/05 01:03:59;;;;;;;13.33;6.57;;;14.50;99.90;;;;;;5018590;28;20731;-76
2023/07/05 01:06:25;;;;;;;14.97;6.77;;;14.40;99.90;;;;;;5034690;28;20057;-76
2023/07/05 01:08:52;;;;;;;14.17;6.07;;;14.40;99.90;;;;;;5034555;28;20280;-76
2023/07/05 01:11:24;;;;;;;13.50;6.37;;;14.50;99.90;;;;;;5001985;28;20050;-76
2023/07/05 01:14:08;;;;;;;13.43;6.90;;;14.50;99.90;;;;;;5035939;28;20684;-76
2023/07/05 01:16:50;;;;;;;13.57;6.93;;;14.50;99.90;;;;;;5034279;28;20362;-77
2023/07/05 01:19:26;;;;;;;13.30;7.03;;;14.40;99.90;;;;;;5017872;28;20049;-77
2023/07/05 01:22:00;;;;;;;12.77;6.93;;;14.40;99.90;;;;;;5035606;28;20788;-76
2023/07/05 01:25:06;;;;;;;16.20;7.53;;;14.40;99.90;;;;;;5034220;28;20296;-77
2023/07/05 01:27:42;;;;;;;16.13;7.57;;;14.50;99.90;;;;;;5034238;28;20144;-78
2023/07/05 01:30:45;;;;;;;20.27;8.23;;;14.50;99.90;;;;;;5034454;28;20296;-78
2023/07/05 01:33:20;;;;;;;14.53;6.90;;;14.50;99.90;;;;;;5034430;28;20296;-77
2023/07/05 01:35:49;;;;;;;14.73;6.50;;;14.40;99.90;;;;;;5035011;28;20280;-75
2023/07/05 01:38:15;;;;;;;15.00;6.80;;;14.40;99.90;;;;;;5033737;28;20406;-75
2023/07/05 01:41:06;;;;;;;17.50;7.77;;;14.40;99.90;;;;;;5035071;28;20327;-75
2023/07/05 01:43:36;;;;;;;14.07;7.07;;;14.30;99.90;;;;;;5033916;28;20041;-75
2023/07/05 01:46:17;;;;;;;14.77;7.57;;;14.30;99.90;;;;;;5035365;28;20273;-74
2023/07/05 01:49:07;;;;;;;17.77;7.90;;;14.30;99.90;;;;;;5034061;28;20784;-74
2023/07/05 01:51:35;;;;;;;18.73;7.07;;;14.20;99.90;;;;;;5034914;28;20288;-74
2023/07/05 01:54:10;;;;;;;14.07;8.07;;;14.20;99.90;;;;;;5034131;28;20792;-75
2023/07/05 01:56:54;;;;;;;17.15;8.60;;;14.20;99.90;;;;;;5034038;28;20285;-75
2023/07/05 01:59:25;;;;;;;12.07;8.20;;;14.20;99.90;;;;;;5033254;28;20049;-77
2023/07/05 02:01:53;;;;;;;15.87;8.53;;;14.20;99.90;;;;;;5035146;28;20312;-76
2023/07/05 02:04:22;;;;;;;15.57;8.30;;;14.20;99.90;;;;;;5034710;28;20755;-76
2023/07/05 02:06:47;;;;;;;16.60;8.60;;;14.20;99.90;;;;;;5033739;28;20315;-76
2023/07/05 02:09:13;;;;;;;19.30;8.77;;;14.20;99.90;;;;;;5034440;28;20757;-76
2023/07/05 02:11:39;;;;;;;15.57;7.93;;;14.10;99.90;;;;;;5033105;28;20037;-76
2023/07/05 02:14:05;;;;;;;17.53;8.50;;;14.10;99.90;;;;;;5033621;28;20119;-75
2023/07/05 02:16:31;;;;;;;19.57;8.60;;;14.20;99.90;;;;;;5034469;28;20493;-75
2023/07/05 02:18:56;;;;;;;16.00;8.30;;;14.20;99.90;;;;;;5034585;28;20133;-75
2023/07/05 02:21:22;;;;;;;16.00;8.40;;;14.10;99.90;;;;;;5033030;28;20132;-75
2023/07/05 02:23:48;;;;;;;17.57;9.30;;;14.20;99.90;;;;;;5016881;28;20152;-75
2023/07/05 02:26:13;;;;;;;17.30;8.17;;;14.10;99.90;;;;;;5034404;28;20132;-75
2023/07/05 02:28:39;;;;;;;13.27;8.83;;;14.10;99.90;;;;;;5000336;28;20049;-75
2023/07/05 02:31:11;;;;;;;16.17;8.27;;;14.10;99.90;;;;;;5034508;28;20114;-75
2023/07/05 02:33:43;;;;;;;17.23;8.97;;;14.10;99.90;;;;;;5034119;28;20532;-75
2023/07/05 02:36:12;;;;;;;15.33;8.87;;;14.10;99.90;;;;;;5034427;28;20328;-74
2023/07/05 02:38:39;;;;;;;16.33;9.43;;;14.10;99.90;;;;;;5033946;28;20330;-76
2023/07/05 02:41:05;;;;;;;21.70;10.00;;;14.10;99.90;;;;;;5034368;28;20280;-76
2023/07/05 02:43:31;;;;;;;16.37;10.23;;;14.10;99.90;;;;;;5016336;28;20371;-75
2023/07/05 02:45:57;;;;;;;21.63;9.43;;;14.10;99.90;;;;;;5034172;28;20041;-76
2023/07/05 02:48:23;;;;;;;20.67;11.10;;;14.10;99.90;;;;;;5034111;28;20045;-76
2023/07/05 02:50:48;;;;;;;17.97;10.37;;;14.10;99.90;;;;;;4999596;28;20041;-76
2023/07/05 02:53:14;;;;;;;18.13;10.43;;;14.10;99.90;;;;;;5016212;28;20128;-73
2023/07/05 02:55:41;;;;;;;23.70;10.67;;;14.10;99.90;;;;;;5032232;28;20060;-71
2023/07/05 02:58:07;;;;;;;17.23;11.20;;;14.10;99.90;;;;;;5016893;28;20056;-70
2023/07/05 03:00:33;;;;;;;18.77;10.53;;;14.10;99.90;;;;;;5033522;28;20375;-71
2023/07/05 03:02:59;;;;;;;17.73;10.67;;;14.00;99.90;;;;;;5033836;28;20379;-70
2023/07/05 03:05:24;;;;;;;19.67;11.47;;;14.10;99.90;;;;;;5033791;28;20284;-71
2023/07/05 03:07:50;;;;;;;18.37;11.00;;;14.10;99.90;;;;;;5032025;28;20128;-71
2023/07/05 03:10:16;;;;;;;18.37;11.67;;;14.10;99.90;;;;;;5016099;28;20393;-71
2023/07/05 03:12:42;;;;;;;18.70;11.87;;;14.00;99.90;;;;;;5033434;28;20362;-71
2023/07/05 03:15:08;;;;;;;20.33;11.80;;;14.10;99.90;;;;;;5032316;28;20133;-71
2023/07/05 03:17:34;;;;;;;22.83;12.40;;;14.10;99.90;;;;;;5032244;28;20071;-71
2023/07/05 03:20:00;;;;;;;20.40;12.30;;;14.10;99.90;;;;;;5032359;28;20783;-71
2023/07/05 03:22:26;;;;;;;23.33;13.77;;;14.10;99.90;;;;;;5033003;28;20299;-70
2023/07/05 03:24:52;;;;;;;23.53;14.40;;;14.10;99.90;;;;;;5033270;28;20095;-70
2023/07/05 03:27:19;;;;;;;25.00;14.03;;;14.10;99.90;;;;;;5015965;28;20290;-70
2023/07/05 03:29:45;;;;;;;22.47;14.07;;;14.10;99.90;;;;;;5032036;28;20339;-71
2023/07/05 03:32:10;;;;;;;23.03;13.93;;;14.20;99.90;;;;;;5032318;28;20323;-70
2023/07/05 03:34:36;;;;;;;20.20;13.93;;;14.20;99.90;;;;;;5032871;28;20057;-72
2023/07/05 03:37:02;;;;;;;26.23;14.57;;;14.20;99.90;;;;;;5015517;28;20128;-72
2023/07/05 03:39:29;;;;;;;25.13;14.90;;;14.20;99.90;;;;;;5032174;28;20359;-71
2023/07/05 03:41:54;;;;;;;27.93;15.57;;;14.20;99.90;;;;;;5015394;28;20830;-72
2023/07/05 03:44:22;;;;;;;25.77;15.67;;;14.20;99.90;;;;;;5032818;28;20280;-72
2023/07/05 03:46:49;;;;;;;25.80;15.87;;;14.30;99.90;;;;;;5031486;28;20486;-72
2023/07/05 03:49:15;;;;;;;22.50;14.83;;;14.30;99.90;;;;;;5032797;28;20784;-71
2023/07/05 03:51:41;;;;;;;25.93;15.00;;;14.30;99.90;;;;;;5031212;28;20299;-72
2023/07/05 03:54:07;;;;;;;20.33;13.57;;;14.30;99.90;;;;;;5033362;28;20288;-71
2023/07/05 03:56:34;;;;;;;19.20;14.23;;;14.40;99.90;;;;;;5032865;28;20632;-75
2023/07/05 03:59:00;;;;;;;18.87;13.77;;;14.40;99.90;;;;;;5015211;28;20698;-71
2023/07/05 04:01:27;;;;;;;22.47;14.17;;;14.50;99.90;;;;;;5015194;28;20375;-71
2023/07/05 04:03:56;;;;;;;21.53;14.00;;;14.50;99.90;;;;;;5031250;28;20378;-71
2023/07/05 04:06:23;;;;;;;19.23;14.90;;;14.50;99.90;;;;;;5031569;28;20306;-71
2023/07/05 04:08:49;;;;;;;23.00;14.37;;;14.50;99.90;;;;;;5032442;28;20371;-71
2023/07/05 04:11:14;;;;;;;24.67;14.03;;;14.50;99.90;;;;;;5031505;28;20311;-71
2023/07/05 04:13:40;;;;;;;26.30;14.67;;;14.60;99.90;;;;;;5031344;28;20076;-71
2023/07/05 04:16:10;;;;;;;20.60;13.33;;;14.60;99.90;;;;;;5032455;28;20512;-71
2023/07/05 04:18:37;;;;;;;23.70;13.70;;;14.60;99.90;;;;;;5030918;28;20415;-74
2023/07/05 04:21:04;;;;;;;20.83;13.10;;;14.60;99.90;;;;;;5032173;28;20366;-71
2023/07/05 04:23:29;;;;;;;23.50;12.83;;;14.70;99.90;;;;;;5032632;28;20287;-71
2023/07/05 04:26:04;;;;;;;19.00;12.00;;;14.70;99.90;;;;;;5030735;28;20367;-71
2023/07/05 04:28:31;;;;;;;18.65;11.82;;;14.70;99.90;;;;;;5032530;28;20107;-71
2023/07/05 04:30:57;;;;;;;15.73;10.73;;;14.70;99.90;;;;;;5032143;28;20129;-71
2023/07/05 04:33:23;;;;;;;15.70;10.30;;;14.70;99.90;;;;;;5031280;28;20696;-71
2023/07/05 04:35:50;;;;;;;12.30;7.97;;;14.80;99.90;;;;;;5031324;28;20288;-71
2023/07/05 04:38:16;;;;;;;14.13;6.73;;;14.80;99.90;;;;;;5031473;28;20288;-71
2023/07/05 04:40:42;;;;;;;14.47;6.50;;;14.80;99.90;;;;;;5032064;28;20319;-71
2023/07/05 04:43:09;;;;;;;13.43;5.00;;;14.80;99.90;;;;;;5031415;28;20316;-71
2023/07/05 04:45:35;;;;;;;9.70;5.20;;;14.80;99.90;;;;;;5032003;28;20056;-71
2023/07/05 04:48:01;;;;;;;9.90;4.40;;;14.70;99.90;;;;;;5031881;28;20283;-71
2023/07/05 04:50:26;;;;;;;10.17;4.83;;;14.60;99.90;;;;;;5031170;28;20308;-71
2023/07/05 04:52:52;;;;;;;8.43;4.20;;;14.60;99.90;;;;;;5031888;28;20060;-71
2023/07/05 04:55:18;;;;;;;9.83;4.63;;;14.50;99.90;;;;;;5031254;28;20132;-71
2023/07/05 04:57:43;;;;;;;8.57;3.83;;;14.50;99.90;;;;;;5031022;28;20489;-71
2023/07/05 05:00:11;;;;;;;9.23;4.40;;;14.50;99.90;;;;;;5014768;28;20089;-71
2023/07/05 05:02:37;;;;;;;8.67;4.37;;;14.50;99.90;;;;;;5032048;28;20049;-71
2023/07/05 05:05:06;;;;;;;9.73;4.83;;;14.60;99.90;;;;;;5031943;28;20290;-71
2023/07/05 05:07:32;;;;;;;7.53;4.67;;;14.60;99.90;;;;;;5031105;28;20290;-71
2023/07/05 05:09:59;;;;;;;7.07;4.57;;;14.60;99.90;;;;;;5030430;28;20660;-71
2023/07/05 05:12:26;;;;;;;8.13;4.53;;;14.70;99.90;;;;;;5031816;28;20045;-71
2023/07/05 05:14:52;;;;;;;7.47;4.67;;;14.60;99.90;;;;;;5031640;28;20617;-71
2023/07/05 05:17:18;;;;;;;7.97;4.87;;;14.50;99.90;;;;;;5031643;28;20294;-71
2023/07/05 05:19:44;;;;;;;10.53;4.93;;;14.60;99.90;;;;;;5031626;28;20041;-75
2023/07/05 05:22:11;;;;;;;10.30;5.37;;;14.50;99.90;;;;;;5030430;28;20053;-71
2023/07/05 05:24:37;;;;;;;7.73;4.27;;;14.50;99.90;;;;;;5031946;28;20283;-71
2023/07/05 05:27:03;;;;;;;8.60;4.30;;;14.40;99.90;;;;;;5030691;28;20288;-71
2023/07/05 05:29:30;;;;;;;8.73;4.47;;;14.40;99.90;;;;;;5031861;28;20350;-71
2023/07/05 05:31:56;;;;;;;7.90;4.87;;;14.40;99.90;;;;;;5032447;28;20796;-71
2023/07/05 05:34:25;;;;;;;7.87;4.83;;;14.40;99.90;;;;;;5035520;28;20759;-71
2023/07/05 05:36:50;;;;;;;9.07;5.10;;;14.30;99.90;;;;;;5035233;28;20342;-71
2023/07/05 05:39:16;;;;;;;7.80;4.53;;;14.30;99.90;;;;;;5035252;28;20744;-71
2023/07/05 05:41:42;;;;;;;6.93;4.67;;;14.30;99.90;;;;;;5035408;28;20046;-71
2023/07/05 05:44:07;;;;;;;7.87;4.53;;;14.30;99.90;;;;;;5034947;28;20046;-71
2023/07/05 05:46:33;;;;;;;9.43;5.00;;;14.30;99.90;;;;;;5034994;28;20046;-71
2023/07/05 05:48:59;;;;;;;8.43;5.27;;;14.40;99.90;;;;;;5034988;28;20053;-71
2023/07/05 05:51:25;;;;;;;8.20;4.50;;;14.50;99.90;;;;;;5034197;28;20490;-71
2023/07/05 05:53:51;;;;;;;7.13;4.67;;;14.50;99.90;;;;;;5034559;28;20334;-72
2023/07/05 05:56:18;;;;;;;9.10;4.33;;;14.50;99.90;;;;;;5034939;28;20132;-71
2023/07/05 05:58:43;;;;;;;7.10;4.27;;;14.40;99.90;;;;;;5034638;28;20057;-72
2023/07/05 06:01:12;;;;;;;11.30;4.83;;;14.30;99.90;;;;;;5033527;28;20306;-71
2023/07/05 06:03:38;;;;;;;10.77;5.13;;;14.30;99.90;;;;;;5035085;28;20128;-71
2023/07/05 06:06:04;;;;;;;7.90;5.40;;;14.30;99.90;;;;;;5034682;28;20287;-72
2023/07/05 06:08:30;;;;;;;6.97;4.57;;;14.30;99.90;;;;;;5033802;28;20379;-71
2023/07/05 06:10:57;;;;;;;8.07;4.70;;;14.20;99.90;;;;;;5034543;28;20383;-70
2023/07/05 06:13:24;;;;;;;11.33;4.50;;;14.20;99.90;;;;;;5034649;28;20038;-71
2023/07/05 06:15:54;;;;;;;7.90;4.37;;;14.30;99.90;;;;;;5034355;28;20319;-70
2023/07/05 06:18:20;;;;;;;6.13;3.87;;;14.40;99.90;;;;;;5034548;28;20363;-70
2023/07/05 06:20:45;;;;;;;8.40;4.63;;;14.50;99.90;;;;;;5033450;28;20300;-71
2023/07/05 06:23:11;;;;;;;5.47;3.83;;;15.50;99.90;;;;;;5033249;28;20233;-71
2023/07/05 06:25:37;;;;;;;6.80;3.90;;;16.60;99.90;;;;;;5034476;28;20049;-71
2023/07/05 06:28:02;;;;;;;12.60;4.70;;;17.60;99.90;;;;;;5034074;28;20038;-70
2023/07/05 06:30:28;;;;;;;8.33;3.87;;;18.50;99.90;;;;;;5032974;28;20052;-71
2023/07/05 06:32:55;;;;;;;8.90;3.90;;;19.40;99.90;;;;;;5034203;28;20054;-72
2023/07/05 06:35:21;;;;;;;6.70;3.30;;;20.20;99.90;;;;;;5034378;28;20085;-71
2023/07/05 06:37:46;;;;;;;7.60;4.07;;;20.40;99.90;;;;;;5034201;28;20096;-71
2023/07/05 06:40:13;;;;;;;6.40;3.33;;;19.60;99.90;;;;;;5032911;28;20528;-71
2023/07/05 06:42:39;;;;;;;5.33;3.13;;;18.80;99.90;;;;;;5032784;28;20128;-71
2023/07/05 06:45:05;;;;;;;5.47;3.20;;;18.20;99.90;;;;;;5016254;28;20053;-71
2023/07/05 06:47:31;;;;;;;8.60;3.50;;;17.80;99.90;;;;;;5016779;28;20053;-72
2023/07/05 06:49:57;;;;;;;4.67;2.47;;;18.40;99.90;;;;;;5033803;28;20051;-72
2023/07/05 06:52:23;;;;;;;5.80;2.70;;;18.80;99.90;;;;;;5034015;28;20126;-72
2023/07/05 06:54:49;;;;;;;5.90;3.10;;;19.10;99.90;;;;;;5034064;28;20081;-72
2023/07/05 06:57:15;;;;;;;5.67;2.67;;;19.60;99.90;;;;;;5033629;28;20846;-72
2023/07/05 06:59:44;;;;;;;6.03;3.00;;;20.30;99.90;;;;;;5032973;28;20056;-72
2023/07/05 07:02:10;;;;;;;5.53;3.20;;;20.80;99.90;;;;;;5032578;28;20053;-72
2023/07/05 07:04:36;;;;;;;6.10;2.80;;;20.30;99.90;;;;;;5033865;28;20053;-72
2023/07/05 07:07:02;;;;;;;4.67;2.83;;;19.80;99.90;;;;;;5033115;28;20045;-72
2023/07/05 07:09:28;;;;;;;20.00;5.10;;;19.40;99.90;;;;;;5032418;28;20103;-71
2023/07/05 07:11:54;;;;;;;6.17;3.43;;;18.80;99.90;;;;;;5032177;28;20042;-72
2023/07/05 07:14:19;;;;;;;7.20;3.53;;;18.20;99.90;;;;;;5033422;28;20052;-72
2023/07/05 07:16:46;;;;;;;7.57;3.77;;;17.50;99.90;;;;;;5032387;28;20064;-71
2023/07/05 07:19:11;;;;;;;6.83;3.90;;;17.10;99.90;;;;;;5032273;28;20080;-73
2023/07/05 07:21:37;;;;;;;5.93;3.17;;;16.60;99.90;;;;;;5033426;28;20054;-73
2023/07/05 07:24:04;;;;;;;20.23;5.57;;;16.30;99.90;;;;;;5015676;28;20489;-74
2023/07/05 07:26:29;;;;;;;16.33;2.80;;;16.10;99.90;;;;;;5015438;28;20054;-77
2023/07/05 07:28:56;;;;;;;3.50;1.80;;;15.80;99.90;;;;;;5015821;28;20055;-76
2023/07/05 07:31:31;;;;;;;3.47;1.57;;;15.50;99.90;;;;;;5031979;28;20056;-76
2023/07/05 07:34:00;;;;;;;3.67;1.10;;;15.10;99.90;;;;;;5016050;28;20049;-76
2023/07/05 07:36:28;;;;;;;3.13;1.63;;;14.60;99.90;;;;;;5032277;28;20084;-76
2023/07/05 07:38:54;;;;;;;2.67;1.33;;;14.40;99.90;;;;;;5031916;28;20045;-76
2023/07/05 07:41:25;;;;;;;3.17;1.30;;;14.00;99.90;;;;;;5031817;28;20114;-75
2023/07/05 07:43:58;;;;;;;3.00;1.37;;;13.80;99.90;;;;;;5032553;28;20427;-75
2023/07/05 07:46:26;;;;;;;3.13;1.40;;;13.60;99.90;;;;;;5033049;28;20049;-75
2023/07/05 07:48:55;;;;;;;5.23;1.53;;;13.50;99.90;;;;;;5031366;28;20513;-74
2023/07/05 07:51:26;;;;;;;3.50;1.30;;;13.30;99.90;;;;;;5032602;28;20311;-74
2023/07/05 07:53:52;;;;;;;4.47;1.53;;;13.20;99.90;;;;;;5032428;28;20276;-72
2023/07/05 07:56:20;;;;;;;2.97;1.10;;;13.10;99.90;;;;;;5032647;28;20284;-72
2023/07/05 07:58:48;;;;;;;3.27;1.00;;;13.00;99.90;;;;;;5031781;28;20127;-73
2023/07/05 08:01:17;;;;;;;3.33;1.10;;;12.80;99.90;;;;;;5032399;28;20276;-73
2023/07/05 08:03:43;;;;;;;3.83;1.10;;;12.70;99.90;;;;;;5032535;28;20284;-72
2023/07/05 08:06:09;;;;;;;5.00;1.23;;;12.60;99.90;;;;;;5032221;28;20316;-73
2023/07/05 08:08:36;;;;;;;3.03;1.30;;;12.60;99.90;;;;;;5031492;28;20288;-72
2023/07/05 08:11:03;;;;;;;5.93;1.17;;;12.60;99.90;;;;;;5032516;28;20304;-72
2023/07/05 08:13:30;;;;;;;3.10;1.00;;;12.50;99.90;;;;;;5031425;28;20307;-74
2023/07/05 08:16:00;;;;;;;3.03;1.13;;;12.50;99.90;;;;;;5031729;28;20366;-74
2023/07/05 08:18:26;;;;;;;4.77;1.10;;;12.50;99.90;;;;;;5032202;28;20279;-74
2023/07/05 08:20:52;;;;;;;3.17;1.20;;;12.50;99.90;;;;;;5031020;28;20292;-71
2023/07/05 08:23:19;;;;;;;3.03;1.00;;;12.40;99.90;;;;;;5014733;28;20041;-73
2023/07/05 08:25:45;;;;;;;2.27;1.00;;;12.40;99.90;;;;;;5031206;28;20292;-70
2023/07/05 08:28:13;;;;;;;4.00;1.17;;;12.40;99.90;;;;;;5032181;28;20341;-68
2023/07/05 08:30:39;;;;;;;4.77;1.13;;;12.40;99.90;;;;;;5014411;28;20312;-73
2023/07/05 08:33:06;;;;;;;6.87;1.57;;;12.30;99.90;;;;;;5030756;28;20292;-72
2023/07/05 08:35:33;;;;;;;7.07;2.07;;;12.30;99.90;;;;;;5031095;28;20370;-71
2023/07/05 08:37:59;;;;;;;7.40;1.73;;;12.30;99.90;;;;;;5031356;28;20380;-71
2023/07/05 08:40:36;;;;;;;6.13;1.50;;;12.40;99.90;;;;;;5032236;28;20288;-70
2023/07/05 08:43:26;;;;;;;8.57;1.60;;;12.40;99.90;;;;;;5032366;28;20273;-71
2023/07/05 08:46:02;;;;;;;9.50;2.27;;;12.50;99.90;;;;;;5032769;28;20283;-71
2023/07/05 08:48:30;;;;;;;11.97;2.70;;;12.60;99.90;;;;;;5030955;28;20322;-74
2023/07/05 08:50:57;;;;;;;9.10;2.37;;;12.70;99.90;;;;;;5030613;28;20381;-71
2023/07/05 08:53:23;;;;;;;8.50;1.97;;;12.90;99.90;;;;;;5047061;28;20775;-73
2023/07/05 08:56:06;;;;;;;10.10;2.33;;;13.00;99.90;;;;;;5011444;28;20288;-72
2023/07/05 08:58:43;;;;;;;6.87;1.70;;;13.10;99.90;;;;;;5031210;28;20296;-73
2023/07/05 09:01:25;;;;;;;8.63;1.27;;;13.20;99.90;;;;;;5032144;28;20280;-72
2023/07/05 09:03:51;;;;;;;5.37;1.17;;;13.30;99.90;;;;;;5030938;28;20411;-67
2023/07/05 09:06:38;;;;;;;6.37;1.30;;;13.50;99.90;;;;;;5033536;28;20284;-69
2023/07/05 09:09:36;;;;;;;6.97;1.90;;;13.60;99.90;;;;;;5048746;28;20497;-68
2023/07/05 09:12:17;;;;;;;8.27;1.83;;;13.70;99.90;;;;;;5033184;28;20780;-68
2023/07/05 09:15:15;;;;;;;8.73;2.00;;;13.80;99.90;;;;;;5033431;28;20354;-68
2023/07/05 09:18:00;;;;;;;6.27;1.50;;;13.90;99.90;;;;;;5033900;28;20297;-69
2023/07/05 09:21:07;;;;;;;4.28;1.30;;;13.90;99.90;;;;;;5033377;28;20287;-70
2023/07/05 09:23:40;;;;;;;2.97;1.10;;;14.00;99.90;;;;;;4975394;28;20054;-69
2023/07/05 09:26:15;;;;;;;2.90;1.03;;;14.20;99.90;;;;;;5033758;28;20288;-70
2023/07/05 09:28:49;;;;;;;;;;;14.20;99.90;;;;;;5032052;28;20338;-69
2023/07/05 09:31:16;;;;;;;4.73;1.20;;;14.20;99.90;;;;;;5034777;28;19924;-68
2023/07/05 09:33:48;;;;;;;5.03;1.17;;;14.30;99.90;;;;;;5034874;28;20800;-70
2023/07/05 09:36:22;;;;;;;4.30;0.90;;;14.40;99.90;;;;;;5034462;28;20292;-70
2023/07/05 09:39:02;;;;;;;2.22;0.90;;;14.40;99.90;;;;;;5030491;28;20349;-70
2023/07/05 09:41:41;;;;;;;8.23;1.07;;;14.70;99.90;;;;;;5028476;28;20072;-72
2023/07/05 09:44:06;;;;;;;4.27;0.93;;;14.80;99.90;;;;;;5032712;28;20323;-70
2023/07/05 09:46:36;;;;;;;7.87;1.17;;;14.80;99.90;;;;;;5032306;28;20327;-71
2023/07/05 09:49:01;;;;;;;3.53;0.80;;;14.90;99.90;;;;;;5028529;28;20054;-68
2023/07/05 09:51:27;;;;;;;3.30;1.00;;;14.90;99.90;;;;;;5028744;28;20288;-68
2023/07/05 09:53:59;;;;;;;3.83;1.13;;;14.90;99.90;;;;;;5034454;28;20059;-70
2023/07/05 09:56:28;;;;;;;5.07;1.00;;;14.70;99.90;;;;;;5029674;28;20056;-69
2023/07/05 09:59:20;;;;;;;5.70;1.70;;;14.60;99.90;;;;;;5028807;28;20816;-68
2023/07/05 10:01:51;;;;;;;3.73;1.53;;;14.40;99.90;;;;;;5024425;28;20648;-68
2023/07/05 10:04:18;;;;;;;4.77;1.27;;;14.30;99.90;;;;;;5028960;28;21064;-69
2023/07/05 10:06:46;;;;;;;3.03;0.80;;;14.50;99.90;;;;;;5029735;28;20779;-68
2023/07/05 10:09:15;;;;;;;2.27;0.80;;;14.60;99.90;;;;;;5028082;28;20307;-74
2023/07/05 10:11:46;;;;;;;2.30;1.00;;;14.60;99.90;;;;;;5032303;28;20307;-73
2023/07/05 10:14:15;;;;;;;5.47;1.20;;;14.70;99.90;;;;;;5032917;28;20351;-70
2023/07/05 10:16:56;;;;;;;4.93;1.03;;;14.90;99.90;;;;;;5032627;28;20284;-68
2023/07/05 10:19:32;;;;;;;3.27;1.00;;;15.10;99.90;;;;;;5032738;28;20273;-72
2023/07/05 10:22:01;;;;;;;2.77;0.70;;;15.10;99.90;;;;;;5030956;28;20335;-73
2023/07/05 10:24:30;;;;;;;2.97;0.90;;;15.10;99.90;;;;;;5033630;28;20280;-72
2023/07/05 10:27:22;;;;;;;3.13;0.87;;;15.20;99.90;;;;;;5034022;28;20367;-73
2023/07/05 10:29:50;;;;;;;5.50;1.20;;;15.30;99.90;;;;;;5033510;28;20336;-72
2023/07/05 10:32:19;;;;;;;4.93;1.03;;;15.30;99.90;;;;;;5032278;28;20284;-71
2023/07/05 10:34:49;;;;;;;3.20;0.90;;;15.50;99.90;;;;;;5032726;28;20315;-71
2023/07/05 10:37:37;;;;;;;5.77;1.80;;;15.80;99.90;;;;;;5031814;28;20132;-70
2023/07/05 10:40:08;;;;;;;2.57;0.90;;;15.90;99.90;;;;;;5015029;28;20041;-67
2023/07/05 10:42:38;;;;;;;3.60;1.37;;;16.00;99.90;;;;;;5033673;28;20284;-67
2023/07/05 10:45:05;;;;;;;4.37;1.07;;;16.00;99.90;;;;;;5034285;28;20049;-67
2023/07/05 10:47:32;;;;;;;4.97;1.37;;;16.00;99.90;;;;;;5032392;28;20639;-69
2023/07/05 10:50:09;;;;;;;3.77;1.33;;;16.00;99.90;;;;;;5034068;28;20648;-71
2023/07/05 10:52:37;;;;;;;5.53;1.40;;;16.00;99.90;;;;;;5033764;28;20482;-71
2023/07/05 10:55:10;;;;;;;9.20;1.87;;;16.10;99.90;;;;;;5033759;28;20053;-71
2023/07/05 10:57:45;;;;;;;6.23;1.07;;;16.10;99.90;;;;;;5033613;28;20779;-71
2023/07/05 11:00:37;;;;;;;5.65;1.30;;;16.20;99.90;;;;;;5032923;28;20289;-71
2023/07/05 11:03:49;;;;;;;5.77;1.13;;;16.30;99.90;;;;;;5033995;28;20052;-72
2023/07/05 11:06:17;;;;;;;7.90;1.50;;;16.40;99.90;;;;;;5031034;28;20064;-71
2023/07/05 11:08:47;;;;;;;5.00;1.40;;;16.50;99.90;;;;;;5032275;28;20046;-72
2023/07/05 11:11:25;;;;;;;8.03;1.70;;;16.60;99.90;;;;;;5033669;28;20362;-70
2023/07/05 11:13:52;;;;;;;8.73;2.00;;;16.60;99.90;;;;;;5033508;28;20521;-73
2023/07/05 11:16:21;;;;;;;5.83;1.60;;;16.50;99.90;;;;;;5033425;28;20430;-73
2023/07/05 11:18:48;;;;;;;8.67;1.37;;;16.50;99.90;;;;;;5033183;28;20056;-72
2023/07/05 11:21:53;;;;;;;9.50;1.80;;;16.60;99.90;;;;;;5033441;28;20049;-72
2023/07/05 11:24:30;;;;;;;6.67;1.63;;;16.60;99.90;;;;;;4956071;28;20454;-74
2023/07/05 11:26:57;;;;;;;5.77;1.30;;;16.70;99.90;;;;;;4972353;28;20043;-78
2023/07/05 11:29:32;;;;;;;9.93;2.53;;;16.80;99.90;;;;;;4996522;28;20068;-74
2023/07/05 11:32:02;;;;;;;5.00;1.50;;;16.90;99.90;;;;;;5033289;28;20052;-68
2023/07/05 11:34:27;;;;;;;12.13;2.47;;;17.00;99.90;;;;;;5032952;28;20060;-68
2023/07/05 11:37:13;;;;;;;5.93;2.23;;;17.10;99.90;;;;;;5033654;28;20068;-70
2023/07/05 11:39:45;;;;;;;10.17;2.40;;;17.20;99.90;;;;;;5032909;28;20125;-69
2023/07/05 11:42:16;;;;;;;12.03;2.63;;;17.20;99.90;;;;;;5033321;28;20512;-71
2023/07/05 11:44:43;;;;;;;11.00;2.90;;;16.90;99.90;;;;;;5032949;28;20054;-69
2023/07/05 11:47:30;;;;;;;12.67;4.17;;;16.50;99.90;;;;;;5033145;28;20490;-73
2023/07/05 11:50:02;;;;;;;11.60;3.10;;;16.10;99.90;;;;;;5032668;28;20045;-75
2023/07/05 11:52:30;;;;;;;14.70;3.17;;;15.80;99.90;;;;;;5033016;28;20045;-77
2023/07/05 11:55:19;;;;;;;12.43;2.90;;;15.60;99.90;;;;;;5031245;28;20049;-75
2023/07/05 11:58:01;;;;;;;11.13;2.80;;;15.40;99.90;;;;;;5031545;28;20060;-75
2023/07/05 12:00:27;;;;;;;10.77;2.43;;;15.20;99.90;;;;;;5033176;28;20134;-75
2023/07/05 12:03:21;;;;;;;9.80;3.37;;;15.10;99.90;;;;;;5032726;28;20053;-75
2023/07/05 12:05:56;;;;;;;11.63;3.23;;;15.00;99.90;;;;;;5030879;28;20124;-76
2023/07/05 12:08:31;;;;;;;11.52;3.20;;;14.80;99.90;;;;;;5032998;28;20287;-75
2023/07/05 12:11:01;;;;;;;9.82;3.17;;;14.60;99.90;;;;;;5048238;28;20055;-74
2023/07/05 12:13:32;;;;;;;15.13;4.03;;;14.50;99.90;;;;;;5048141;28;20052;-75
2023/07/05 12:15:58;;;;;;;15.13;4.03;;;14.40;99.90;;;;;;5031492;28;20851;-75
2023/07/05 12:18:25;;;;;;;12.43;3.40;;;14.30;99.90;;;;;;5032322;28;20053;-75
2023/07/05 12:20:54;;;;;;;13.90;3.93;;;14.20;99.90;;;;;;5032195;28;20300;-74
2023/07/05 12:23:22;;;;;;;12.40;3.87;;;14.20;99.90;;;;;;5032631;28;20296;-75
2023/07/05 12:25:53;;;;;;;14.20;4.97;;;14.20;99.90;;;;;;5032368;28;20338;-75
2023/07/05 12:28:24;;;;;;;17.33;3.73;;;14.20;99.90;;;;;;5032520;28;20692;-74
2023/07/05 12:30:59;;;;;;;15.77;4.83;;;14.20;99.90;;;;;;5032055;28;20302;-75
2023/07/05 12:33:34;;;;;;;15.70;3.65;;;14.20;99.90;;;;;;5031514;28;20660;-75
2023/07/05 12:36:15;;;;;;;17.37;3.43;;;14.20;99.90;;;;;;5032558;28;20181;-74
2023/07/05 12:38:43;;;;;;;18.57;4.33;;;14.20;99.90;;;;;;5031222;28;20771;-75
2023/07/05 12:41:24;;;;;;;12.27;4.10;;;14.20;99.90;;;;;;5034740;28;20276;-75
2023/07/05 12:43:58;;;;;;;14.07;3.17;;;14.20;99.90;;;;;;5035403;28;20324;-74
2023/07/05 12:46:26;;;;;;;15.93;3.17;;;14.20;99.90;;;;;;5036596;28;20322;-75
2023/07/05 12:48:52;;;;;;;15.60;3.00;;;14.20;99.90;;;;;;5034986;28;20049;-75
2023/07/05 12:51:21;;;;;;;14.90;4.57;;;14.20;99.90;;;;;;5036598;28;20691;-75
2023/07/05 12:53:58;;;;;;;19.70;4.20;;;14.20;99.90;;;;;;5036121;28;20307;-75
2023/07/05 12:56:36;;;;;;;16.33;3.73;;;14.20;99.90;;;;;;5036707;28;20366;-73